createdAt,value
2018-12-14T00:02:08.980Z,94.05
2018-12-14T00:04:36.433Z,94.02
2018-12-14T00:07:03.905Z,93.95
2018-12-14T00:09:31.467Z,95.50
2018-12-14T00:11:58.934Z,96.40
2018-12-14T00:14:26.386Z,94.02
2018-12-14T00:16:53.862Z,95.01
2018-12-14T00:19:21.302Z,94.15
2018-12-14T00:21:48.775Z,96.10
2018-12-14T00:24:16.230Z,94.76
2018-12-14T00:26:43.670Z,93.29
2018-12-14T00:29:11.133Z,93.98
2018-12-14T00:31:38.582Z,93.27
2018-12-14T00:34:06.047Z,93.72
2018-12-14T00:36:33.503Z,94.16
2018-12-14T00:39:00.962Z,94.42
2018-12-14T00:41:28.453Z,92.56
2018-12-14T00:43:56.010Z,94.37
2018-12-14T00:46:23.444Z,93.82
2018-12-14T00:48:50.896Z,94.52
2018-12-14T00:51:18.347Z,92.51
2018-12-14T00:53:45.816Z,95.00
2018-12-14T00:56:13.250Z,92.96
2018-12-14T00:58:40.709Z,94.39
2018-12-14T01:01:08.158Z,94.23
2018-12-14T01:03:35.618Z,94.11
2018-12-14T01:06:03.060Z,92.34
2018-12-14T01:08:30.511Z,92.98
2018-12-14T01:10:57.968Z,92.89
2018-12-14T01:13:25.405Z,91.19
2018-12-14T01:15:52.939Z,92.26
2018-12-14T01:18:20.433Z,92.42
2018-12-14T01:20:47.899Z,91.91
2018-12-14T01:23:15.347Z,92.18
2018-12-14T01:25:42.817Z,91.01
2018-12-14T01:28:10.265Z,92.60
2018-12-14T01:30:37.729Z,93.80
2018-12-14T01:33:05.181Z,94.68
2018-12-14T01:35:32.745Z,94.34
2018-12-14T01:38:00.195Z,93.60
2018-12-14T01:40:27.656Z,93.54
2018-12-14T01:42:55.109Z,93.92
2018-12-14T01:45:22.567Z,93.05
2018-12-14T01:47:50.004Z,93.66
2018-12-14T01:50:17.461Z,92.31
2018-12-14T01:52:44.997Z,92.00
2018-12-14T01:55:12.558Z,91.70
2018-12-14T01:57:40.303Z,91.67
2018-12-14T02:00:07.842Z,92.58
2018-12-14T02:02:35.309Z,93.42
2018-12-14T02:05:02.753Z,93.82
2018-12-14T02:07:30.210Z,92.35
2018-12-14T02:09:57.649Z,90.03
2018-12-14T02:12:25.105Z,91.87
2018-12-14T02:14:52.553Z,90.26
2018-12-14T02:17:21.720Z,91.07
2018-12-14T02:19:49.273Z,90.30
2018-12-14T02:22:16.731Z,89.73
2018-12-14T02:24:44.182Z,89.73
2018-12-14T02:27:11.645Z,89.76
2018-12-14T02:29:39.088Z,89.32
2018-12-14T02:32:06.631Z,89.11
2018-12-14T02:34:34.080Z,88.68
2018-12-14T02:37:01.540Z,89.99
2018-12-14T02:39:28.992Z,90.62
2018-12-14T02:41:56.450Z,89.23
2018-12-14T02:44:23.897Z,89.01
2018-12-14T02:46:51.344Z,87.66
2018-12-14T02:49:18.840Z,88.44
2018-12-14T02:51:46.449Z,90.01
2018-12-14T02:54:13.981Z,90.73
2018-12-14T02:56:41.429Z,89.34
2018-12-14T02:59:08.885Z,90.44
2018-12-14T03:01:36.333Z,89.05
2018-12-14T03:04:03.792Z,89.36
2018-12-14T03:06:31.246Z,88.42
2018-12-14T03:08:58.711Z,85.92
2018-12-14T03:11:26.150Z,86.59
2018-12-14T03:13:53.778Z,88.28
2018-12-14T03:16:21.270Z,86.67
2018-12-14T03:18:48.730Z,86.07
2018-12-14T03:21:16.285Z,85.72
2018-12-14T03:23:43.759Z,87.12
2018-12-14T03:26:11.465Z,89.21
2018-12-14T03:28:38.921Z,88.20
2018-12-14T03:31:06.355Z,88.92
2018-12-14T03:33:33.839Z,87.48
2018-12-14T03:36:01.361Z,88.61
2018-12-14T03:38:28.818Z,88.66
2018-12-14T03:40:56.254Z,88.64
2018-12-14T03:43:23.685Z,89.41
2018-12-14T03:45:51.143Z,89.36
2018-12-14T03:48:18.590Z,88.86
2018-12-14T03:50:46.049Z,88.30
2018-12-14T03:53:14.168Z,89.17
2018-12-14T03:55:41.629Z,89.31
2018-12-14T03:58:09.076Z,89.27
2018-12-14T04:00:37.025Z,88.72
2018-12-14T04:03:04.572Z,89.66
2018-12-14T04:05:32.542Z,89.60
2018-12-14T04:07:59.982Z,90.12
2018-12-14T04:10:27.446Z,89.76
2018-12-14T04:12:54.901Z,88.42
2018-12-14T04:15:22.373Z,88.83
2018-12-14T04:17:49.824Z,88.52
2018-12-14T04:20:17.286Z,87.95
2018-12-14T04:22:44.733Z,90.56
2018-12-14T04:25:12.199Z,89.04
2018-12-14T04:27:39.758Z,88.97
2018-12-14T04:30:07.277Z,88.18
2018-12-14T04:32:34.733Z,87.28
2018-12-14T04:35:02.171Z,87.21
2018-12-14T04:37:29.673Z,86.62
2018-12-14T04:39:57.122Z,88.05
2018-12-14T04:42:25.053Z,87.07
2018-12-14T04:44:52.494Z,86.54
2018-12-14T04:47:20.333Z,88.58
2018-12-14T04:49:47.773Z,90.20
2018-12-14T04:52:15.235Z,88.48
2018-12-14T04:54:42.679Z,89.36
2018-12-14T04:57:10.137Z,87.98
2018-12-14T04:59:37.688Z,87.76
2018-12-14T05:02:05.158Z,89.67
2018-12-14T05:04:32.612Z,88.90
2018-12-14T05:07:00.152Z,88.45
2018-12-14T05:09:27.594Z,87.18
2018-12-14T05:11:55.055Z,88.07
2018-12-14T05:14:23.298Z,90.08
2018-12-14T05:16:50.738Z,90.21
2018-12-14T05:19:18.203Z,87.39
2018-12-14T05:21:45.931Z,88.58
2018-12-14T05:24:13.387Z,89.23
2018-12-14T05:26:40.848Z,89.11
2018-12-14T05:29:08.314Z,87.11
2018-12-14T05:31:35.766Z,88.62
2018-12-14T05:34:03.225Z,89.02
2018-12-14T05:36:30.679Z,89.48
2018-12-14T05:38:58.154Z,88.22
2018-12-14T05:41:26.001Z,87.56
2018-12-14T05:43:53.456Z,87.88
2018-12-14T05:46:20.901Z,86.91
2018-12-14T05:48:48.357Z,88.21
2018-12-14T05:51:15.799Z,88.03
2018-12-14T05:53:43.260Z,90.46
2018-12-14T05:56:10.767Z,90.51
2018-12-14T05:58:38.280Z,92.87
2018-12-14T06:01:05.738Z,94.95
2018-12-14T06:03:33.198Z,91.89
2018-12-14T06:06:00.650Z,95.18
2018-12-14T06:08:28.685Z,91.79
2018-12-14T06:10:56.162Z,93.39
2018-12-14T06:13:23.621Z,92.91
2018-12-14T06:15:51.081Z,90.09
2018-12-14T06:18:18.525Z,90.60
2018-12-14T06:20:46.011Z,94.14
2018-12-14T06:23:13.487Z,87.01
2018-12-14T06:25:40.953Z,88.56
2018-12-14T06:28:08.404Z,90.59
2018-12-14T06:30:35.881Z,89.32
2018-12-14T06:33:03.330Z,90.64
2018-12-14T06:35:30.780Z,89.19
2018-12-14T06:37:58.222Z,88.73
2018-12-14T06:40:25.688Z,86.96
2018-12-14T06:42:53.158Z,88.38
2018-12-14T06:45:20.628Z,89.36
2018-12-14T06:47:48.065Z,92.41
2018-12-14T06:50:15.521Z,97.86
2018-12-14T06:52:42.991Z,89.68
2018-12-14T06:55:10.439Z,87.45
2018-12-14T06:57:37.902Z,86.99
2018-12-14T07:00:07.031Z,85.40
2018-12-14T07:02:34.884Z,85.85
2018-12-14T07:05:02.331Z,90.03
2018-12-14T07:07:29.790Z,92.57
2018-12-14T07:09:57.241Z,94.37
2018-12-14T07:12:24.726Z,93.54
2018-12-14T07:14:52.185Z,93.59
2018-12-14T07:17:19.664Z,93.53
2018-12-14T07:19:47.106Z,92.77
2018-12-14T07:22:14.574Z,92.84
2018-12-14T07:24:42.028Z,92.72
2018-12-14T07:27:09.504Z,91.08
2018-12-14T07:29:37.113Z,89.74
2018-12-14T07:32:04.561Z,88.63
2018-12-14T07:34:32.005Z,90.56
2018-12-14T07:36:59.463Z,89.09
2018-12-14T07:39:26.897Z,88.75
2018-12-14T07:41:54.357Z,89.32
2018-12-14T07:44:21.867Z,86.20
2018-12-14T07:46:49.466Z,89.87
2018-12-14T07:49:16.935Z,87.70
2018-12-14T07:51:44.379Z,89.91
2018-12-14T07:54:11.841Z,89.47
2018-12-14T07:56:39.296Z,87.58
2018-12-14T07:59:06.862Z,88.86
2018-12-14T08:01:34.422Z,89.51
2018-12-14T08:04:01.906Z,89.94
2018-12-14T08:06:29.344Z,90.32
2018-12-14T08:08:56.815Z,91.05
2018-12-14T08:11:24.271Z,90.74
2018-12-14T08:13:51.747Z,90.79
2018-12-14T08:16:19.201Z,91.35
2018-12-14T08:18:46.683Z,93.56
2018-12-14T08:21:14.133Z,92.25
2018-12-14T08:23:41.592Z,94.85
2018-12-14T08:26:09.050Z,90.12
2018-12-14T08:28:36.485Z,92.48
2018-12-14T08:31:04.013Z,91.05
2018-12-14T08:33:31.554Z,93.50
2018-12-14T08:35:59.011Z,91.97
2018-12-14T08:38:26.455Z,92.14
2018-12-14T08:40:53.920Z,93.18
2018-12-14T08:43:21.356Z,91.40
2018-12-14T08:45:48.826Z,91.55
2018-12-14T08:48:16.367Z,91.63
2018-12-14T08:50:44.330Z,92.29
2018-12-14T08:53:12.188Z,91.88
2018-12-14T08:55:39.720Z,91.19
2018-12-14T08:58:07.215Z,90.33
2018-12-14T09:00:34.675Z,91.39
2018-12-14T09:03:02.114Z,89.16
2018-12-14T09:05:29.579Z,90.40
2018-12-14T09:07:57.017Z,89.80
2018-12-14T09:10:24.465Z,90.04
2018-12-14T09:12:51.934Z,88.01
2018-12-14T09:15:19.376Z,88.17
2018-12-14T09:17:46.829Z,87.69
2018-12-14T09:20:14.281Z,85.08
2018-12-14T09:22:41.751Z,85.68
2018-12-14T09:25:09.205Z,86.72
2018-12-14T09:27:36.680Z,85.83
2018-12-14T09:30:05.299Z,85.74
2018-12-14T09:32:32.857Z,83.11
2018-12-14T09:35:00.482Z,82.47
2018-12-14T09:37:27.946Z,82.37
2018-12-14T09:39:55.390Z,82.15
2018-12-14T09:42:22.933Z,83.41
2018-12-14T09:44:50.375Z,78.86
2018-12-14T09:47:17.837Z,75.65
2018-12-14T09:49:45.273Z,77.04
2018-12-14T09:52:12.738Z,78.42
2018-12-14T09:54:40.178Z,77.55
2018-12-14T09:57:07.636Z,78.99
2018-12-14T09:59:35.085Z,77.73
2018-12-14T10:02:02.527Z,77.98
2018-12-14T10:04:30.105Z,78.07
2018-12-14T10:06:57.549Z,77.31
2018-12-14T10:09:25.029Z,74.35
2018-12-14T10:11:55.280Z,73.53
2018-12-14T10:14:22.033Z,75.35
2018-12-14T10:16:49.474Z,76.33
2018-12-14T10:19:16.924Z,77.07
2018-12-14T10:21:44.382Z,74.16
2018-12-14T10:24:11.833Z,72.04
2018-12-14T10:26:39.274Z,72.68
2018-12-14T10:29:06.754Z,72.45
2018-12-14T10:31:34.217Z,72.28
2018-12-14T10:34:01.682Z,71.50
2018-12-14T10:36:29.115Z,74.16
2018-12-14T10:38:56.584Z,72.83
2018-12-14T10:41:24.035Z,76.66
2018-12-14T10:43:51.506Z,77.29
2018-12-14T10:46:18.949Z,78.13
2018-12-14T10:48:46.396Z,79.20
2018-12-14T10:51:13.866Z,79.43
2018-12-14T10:53:41.302Z,77.01
2018-12-14T10:56:08.856Z,77.22
2018-12-14T10:58:36.304Z,78.45
2018-12-14T11:01:09.302Z,79.30
2018-12-14T11:03:36.750Z,80.10
2018-12-14T11:06:04.213Z,82.03
2018-12-14T11:08:32.674Z,80.04
2018-12-14T11:11:01.058Z,81.22
2018-12-14T11:13:28.501Z,79.65
2018-12-14T11:15:55.976Z,76.87
2018-12-14T11:18:23.422Z,77.82
2018-12-14T11:20:50.881Z,76.28
2018-12-14T11:23:18.387Z,79.05
2018-12-14T11:25:45.844Z,77.62
2018-12-14T11:28:13.289Z,76.17
2018-12-14T11:30:40.744Z,79.28
2018-12-14T11:33:08.201Z,77.87
2018-12-14T11:35:35.674Z,78.54
2018-12-14T11:38:03.118Z,73.32
2018-12-14T11:40:30.553Z,72.62
2018-12-14T11:42:58.010Z,74.44
2018-12-14T11:45:25.459Z,72.71
2018-12-14T11:47:52.939Z,74.82
2018-12-14T11:50:20.381Z,74.25
2018-12-14T11:52:47.842Z,72.96
2018-12-14T11:55:15.278Z,73.62
2018-12-14T11:57:42.741Z,71.37
2018-12-14T12:00:10.359Z,70.73
2018-12-14T12:02:43.057Z,72.93
2018-12-14T12:05:07.368Z,62.38
2018-12-14T12:07:34.829Z,61.28
2018-12-14T12:10:02.273Z,60.11
2018-12-14T12:12:29.828Z,59.80
2018-12-14T12:14:57.272Z,58.37
2018-12-14T12:17:24.725Z,54.79
2018-12-14T12:19:52.184Z,51.17
2018-12-14T12:22:19.648Z,49.90
2018-12-14T12:24:47.109Z,51.86
2018-12-14T12:27:14.561Z,49.91
2018-12-14T12:29:42.041Z,51.56
2018-12-14T12:32:09.533Z,50.58
2018-12-14T12:34:36.994Z,50.36
2018-12-14T12:37:04.447Z,48.66
2018-12-14T12:39:31.910Z,51.88
2018-12-14T12:41:59.361Z,54.31
2018-12-14T12:44:33.300Z,53.97
2018-12-14T12:46:56.281Z,52.13
2018-12-14T12:49:23.736Z,50.04
2018-12-14T12:51:51.282Z,53.94
2018-12-14T12:54:18.741Z,52.98
2018-12-14T12:56:46.198Z,52.12
2018-12-14T12:59:13.661Z,54.62
2018-12-14T13:01:41.105Z,55.09
2018-12-14T13:04:08.568Z,56.08
2018-12-14T13:06:36.009Z,55.01
2018-12-14T13:09:05.323Z,60.15
2018-12-14T13:11:32.770Z,57.40
2018-12-14T13:14:00.220Z,57.09
2018-12-14T13:16:27.674Z,56.36
2018-12-14T13:18:55.127Z,55.62
2018-12-14T13:21:22.585Z,57.08
2018-12-14T13:23:50.026Z,72.66
2018-12-14T13:26:17.485Z,60.16
2018-12-14T13:28:44.935Z,57.17
2018-12-14T13:31:12.398Z,54.33
2018-12-14T13:33:40.049Z,53.91
2018-12-14T13:36:07.516Z,56.28
2018-12-14T13:38:34.976Z,56.00
2018-12-14T13:41:02.528Z,56.96
2018-12-14T13:43:29.971Z,54.27
2018-12-14T13:45:57.436Z,57.28
2018-12-14T13:48:24.880Z,54.10
2018-12-14T13:50:52.455Z,56.63
2018-12-14T13:53:19.893Z,59.15
2018-12-14T13:55:47.356Z,57.80
2018-12-14T13:58:14.799Z,56.04
2018-12-14T14:00:42.627Z,59.27
2018-12-14T14:03:10.404Z,59.09
2018-12-14T14:05:37.990Z,60.68
2018-12-14T14:08:05.455Z,57.99
2018-12-14T14:10:32.898Z,62.98
2018-12-14T14:13:00.361Z,61.35
2018-12-14T14:15:27.891Z,64.10
2018-12-14T14:17:55.341Z,67.22
2018-12-14T14:20:22.793Z,68.36
2018-12-14T14:22:50.249Z,72.77
2018-12-14T14:25:17.846Z,73.06
2018-12-14T14:27:45.373Z,75.16
2018-12-14T14:30:12.818Z,74.45
2018-12-14T14:32:40.290Z,78.61
2018-12-14T14:35:07.749Z,77.71
2018-12-14T14:37:35.217Z,77.32
2018-12-14T14:40:02.659Z,79.54
2018-12-14T14:42:30.150Z,81.67
2018-12-14T14:44:59.917Z,83.04
2018-12-14T14:47:27.076Z,84.81
2018-12-14T14:49:54.522Z,84.78
2018-12-14T14:52:21.962Z,83.34
2018-12-14T14:54:49.616Z,88.32
2018-12-14T14:57:17.065Z,87.87
2018-12-14T14:59:44.534Z,88.83
2018-12-14T15:02:11.981Z,88.50
2018-12-14T15:04:39.441Z,89.12
2018-12-14T15:07:06.886Z,91.18
2018-12-14T15:09:34.673Z,90.37
2018-12-14T15:12:02.165Z,92.58
2018-12-14T15:14:29.657Z,94.22
2018-12-14T15:16:57.099Z,93.41
2018-12-14T15:19:24.670Z,94.22
2018-12-14T15:21:52.225Z,94.09
2018-12-14T15:24:19.682Z,94.24
2018-12-14T15:26:47.120Z,94.22
2018-12-14T15:29:14.574Z,93.60
2018-12-14T15:31:43.414Z,93.89
2018-12-14T15:34:14.344Z,93.62
2018-12-14T15:36:40.348Z,94.64
2018-12-14T15:39:07.880Z,95.72
2018-12-14T15:41:35.351Z,96.80
2018-12-14T15:44:02.801Z,96.67
2018-12-14T15:46:31.179Z,94.79
2018-12-14T15:48:58.617Z,94.22
2018-12-14T15:51:26.082Z,93.46
2018-12-14T15:53:53.525Z,93.99
2018-12-14T15:56:21.028Z,93.88
2018-12-14T15:58:48.485Z,96.36
2018-12-14T16:01:15.945Z,96.71
2018-12-14T16:03:43.398Z,98.80
2018-12-14T16:06:10.859Z,98.10
2018-12-14T16:08:38.298Z,98.00
2018-12-14T16:11:05.755Z,96.28
2018-12-14T16:13:33.194Z,96.40
2018-12-14T16:16:00.652Z,94.31
2018-12-14T16:18:28.140Z,95.87
2018-12-14T16:20:55.683Z,95.26
2018-12-14T16:23:23.155Z,93.67
2018-12-14T16:25:50.611Z,93.10
2018-12-14T16:28:18.360Z,91.19
2018-12-14T16:30:45.796Z,92.37
2018-12-14T16:33:13.254Z,89.62
2018-12-14T16:35:40.897Z,88.41
2018-12-14T16:38:08.365Z,88.84
2018-12-14T16:40:35.818Z,85.77
2018-12-14T16:43:03.277Z,85.20
2018-12-14T16:45:30.837Z,86.66
2018-12-14T16:47:58.293Z,86.20
2018-12-14T16:50:25.733Z,85.87
2018-12-14T16:52:53.438Z,81.88
2018-12-14T16:55:20.882Z,84.63
2018-12-14T16:57:49.741Z,82.71
2018-12-14T17:00:17.483Z,82.09
2018-12-14T17:02:44.941Z,82.89
2018-12-14T17:05:12.393Z,84.28
2018-12-14T17:07:40.302Z,84.28
2018-12-14T17:10:07.896Z,82.58
2018-12-14T17:12:35.355Z,82.03
2018-12-14T17:15:02.803Z,81.28
2018-12-14T17:17:30.266Z,82.20
2018-12-14T17:19:57.736Z,80.46
2018-12-14T17:22:25.194Z,81.99
2018-12-14T17:24:52.669Z,81.99
2018-12-14T17:27:20.131Z,80.60
2018-12-14T17:29:47.600Z,81.71
2018-12-14T17:32:15.118Z,80.39
2018-12-14T17:34:42.923Z,81.68
2018-12-14T17:37:10.369Z,80.01
2018-12-14T17:39:37.829Z,80.30
2018-12-14T17:42:05.353Z,82.20
2018-12-14T17:44:32.825Z,79.30
2018-12-14T17:47:00.358Z,77.81
2018-12-14T17:49:27.833Z,79.07
2018-12-14T17:51:55.278Z,80.32
2018-12-14T17:54:22.771Z,78.06
2018-12-14T17:56:50.213Z,79.06
2018-12-14T17:59:17.670Z,78.54
2018-12-14T18:01:46.293Z,77.75
2018-12-14T18:04:13.753Z,78.80
2018-12-14T18:06:41.277Z,78.40
2018-12-14T18:09:08.807Z,79.09
2018-12-14T18:11:36.275Z,80.32
2018-12-14T18:14:03.740Z,79.91
2018-12-14T18:16:31.489Z,81.99
2018-12-14T18:18:59.055Z,78.88
2018-12-14T18:21:26.517Z,79.50
2018-12-14T18:23:53.974Z,79.76
2018-12-14T18:26:21.435Z,80.13
2018-12-14T18:28:48.884Z,80.10
2018-12-14T18:31:16.340Z,79.04
2018-12-14T18:33:43.793Z,79.58
2018-12-14T18:36:11.250Z,79.34
2018-12-14T18:38:38.685Z,79.90
2018-12-14T18:41:06.166Z,79.80
2018-12-14T18:43:33.610Z,80.53
2018-12-14T18:46:01.089Z,79.95
2018-12-14T18:48:28.533Z,79.58
2018-12-14T18:50:55.978Z,79.44
2018-12-14T18:53:23.437Z,78.51
2018-12-14T18:55:51.836Z,79.24
2018-12-14T18:58:19.293Z,80.28
2018-12-14T19:00:46.730Z,78.93
2018-12-14T19:03:14.189Z,78.83
2018-12-14T19:05:41.643Z,78.85
2018-12-14T19:08:09.093Z,79.25
2018-12-14T19:10:36.529Z,79.93
2018-12-14T19:13:03.997Z,80.10
2018-12-14T19:15:31.441Z,79.09
2018-12-14T19:17:59.114Z,80.42
2018-12-14T19:20:26.568Z,78.64
2018-12-14T19:22:54.734Z,79.93
2018-12-14T19:25:22.189Z,80.90
2018-12-14T19:27:49.652Z,80.70
2018-12-14T19:30:17.097Z,80.76
2018-12-14T19:32:44.638Z,82.17
2018-12-14T19:35:12.093Z,81.87
2018-12-14T19:37:39.560Z,82.35
2018-12-14T19:40:09.183Z,82.78
2018-12-14T19:42:36.639Z,82.68
2018-12-14T19:45:05.147Z,83.54
2018-12-14T19:47:32.642Z,82.96
2018-12-14T19:50:00.102Z,82.75
2018-12-14T19:52:27.547Z,82.55
2018-12-14T19:54:56.106Z,82.99
2018-12-14T19:57:23.546Z,82.76
2018-12-14T19:59:51.025Z,82.41
2018-12-14T20:02:18.477Z,82.80
2018-12-14T20:04:45.952Z,83.52
2018-12-14T20:07:13.400Z,83.08
2018-12-14T20:09:40.868Z,82.21
2018-12-14T20:12:08.377Z,82.40
2018-12-14T20:14:35.833Z,82.68
2018-12-14T20:17:03.272Z,81.20
2018-12-14T20:19:30.732Z,80.71
2018-12-14T20:21:58.190Z,80.40
2018-12-14T20:24:25.654Z,79.92
2018-12-14T20:26:53.108Z,80.23
2018-12-14T20:29:20.551Z,80.32
2018-12-14T20:31:47.997Z,80.80
2018-12-14T20:34:15.441Z,80.44
2018-12-14T20:36:42.893Z,80.66
2018-12-14T20:39:10.335Z,80.44
2018-12-14T20:41:37.813Z,84.54
2018-12-14T20:44:05.265Z,81.68
2018-12-14T20:46:32.717Z,82.54
2018-12-14T20:49:00.183Z,81.56
2018-12-14T20:51:27.626Z,81.66
2018-12-14T20:53:55.084Z,82.14
2018-12-14T20:56:22.531Z,80.38
2018-12-14T20:58:50.009Z,79.82
2018-12-14T21:01:17.470Z,82.83
2018-12-14T21:03:44.931Z,82.07
2018-12-14T21:06:12.382Z,81.42
2018-12-14T21:08:39.839Z,81.14
2018-12-14T21:11:07.283Z,81.29
2018-12-14T21:13:34.743Z,81.32
2018-12-14T21:16:02.190Z,81.89
2018-12-14T21:18:29.650Z,82.99
2018-12-14T21:20:57.087Z,82.27
2018-12-14T21:23:24.541Z,82.56
2018-12-14T21:25:51.998Z,83.94
2018-12-14T21:28:19.466Z,84.75
2018-12-14T21:30:46.909Z,85.41
2018-12-14T21:33:14.378Z,90.36
2018-12-14T21:35:41.822Z,86.91
2018-12-14T21:38:09.273Z,86.23
2018-12-14T21:40:36.834Z,89.88
2018-12-14T21:43:04.278Z,90.07
2018-12-14T21:45:31.733Z,88.13
2018-12-14T21:47:59.177Z,86.39
2018-12-14T21:50:26.640Z,87.03
2018-12-14T21:52:54.092Z,86.42
2018-12-14T21:55:21.550Z,85.98
2018-12-14T21:57:49.076Z,86.86
2018-12-14T22:00:16.569Z,85.98
2018-12-14T22:02:44.016Z,83.89
2018-12-14T22:05:11.478Z,84.56
2018-12-14T22:07:38.930Z,87.52
2018-12-14T22:10:07.653Z,87.19
2018-12-14T22:12:35.101Z,85.90
2018-12-14T22:15:02.564Z,84.69
2018-12-14T22:17:30.001Z,85.06
2018-12-14T22:19:57.453Z,86.91
2018-12-14T22:22:24.913Z,86.72
2018-12-14T22:24:52.374Z,81.92
2018-12-14T22:27:19.816Z,82.66
2018-12-14T22:29:47.257Z,82.41
2018-12-14T22:32:14.714Z,83.21
2018-12-14T22:34:42.167Z,82.84
2018-12-14T22:37:09.745Z,83.63
2018-12-14T22:39:37.674Z,84.24
2018-12-14T22:42:05.148Z,84.07
2018-12-14T22:44:32.603Z,86.67
2018-12-14T22:47:00.078Z,87.55
2018-12-14T22:49:27.526Z,86.92
2018-12-14T22:51:54.981Z,87.69
2018-12-14T22:54:22.440Z,87.72
2018-12-14T22:56:49.905Z,86.90
2018-12-14T22:59:17.360Z,86.93
2018-12-14T23:01:44.834Z,87.95
2018-12-14T23:04:12.291Z,85.30
2018-12-14T23:06:39.757Z,83.18
2018-12-14T23:09:07.215Z,83.37
2018-12-14T23:11:35.546Z,84.83
2018-12-14T23:14:03.076Z,82.49
2018-12-14T23:16:30.640Z,83.71
2018-12-14T23:18:58.082Z,83.13
2018-12-14T23:21:25.525Z,82.88
2018-12-14T23:23:53.069Z,84.36
2018-12-14T23:26:20.512Z,83.79
2018-12-14T23:28:47.965Z,86.34
2018-12-14T23:31:15.404Z,85.03
2018-12-14T23:33:42.868Z,84.31
2018-12-14T23:36:10.305Z,85.22
2018-12-14T23:38:37.778Z,83.74
2018-12-14T23:41:05.233Z,84.36
2018-12-14T23:43:32.702Z,85.07
2018-12-14T23:46:00.144Z,82.96
2018-12-14T23:48:27.608Z,82.02
2018-12-14T23:50:55.063Z,82.49
2018-12-14T23:53:22.605Z,83.76
2018-12-14T23:55:50.051Z,83.25
2018-12-14T23:58:17.508Z,86.29
